Airfield :







YOU CAN JOIN US ON...

 
LOGIN :

Register | Disclaimer

   EN    FR    IT 

 









Legend :    VFR   Marginal VFR   IFR   Intensive IFR   Very Intensive IFR
Visi :
Ceiling :
>= 8 km
>= 3000ft
5 to 8 km
1000 to 3000 ft
1500m to 5 km
500 to 1000 ft
800 to 1500m
200 to 500 ft
< 800m
< 200 ft
Symbols :   Thunderstorms  Fog  Heavy snow  Heavy precipitations  Wind > 20 kt






- Airport Elevation : 501 ft
- IATA code : YWB


CYKG - Kangiqsujuaq (Wakeham Bay)

CURRENT METAR :
  • 061400Z 30012KT 6SM -SN BR OVC038 M13/M17 A2961 RMK SC8 SLP045

EXPIRED METARs :
  • 061300Z 31004KT 15SM -SN SCT023 BKN038 M14/M18 A2961 RMK SC4SC3 VIS N 5 SNW CVR/MUCH LOOSE SLP046

TAF TAF CYKG
Valid from the 06 at 15:00 until the 06 at 22:00 UTC


061438Z 0615/0622 30012KT P6SM SCT020 BKN040
TEMPO 0615/0622 4SM -SHSN OVC020
PROB30 0615/0618 3/4SM -SHSN RMK NXT FCST WILL BE ISSUED AT 071445Z



MET'MAP, your aeronautical weather chart ! - Copyright ORBIFLY December 2007 - Disclaimer

ORBIFLY MET'MAP TEAM :

Programming & Development : Alexandra Zaïnal
Concept & original design : Baudouin d'Aumeries
Assistance for programming : Marc-Olivier Méhu
Technical & hardware support : Manuel Goepfert

Contact : metmap@orbifly.com




SOURCES & CREDITS :

   NOAA